Time;durP1;ratioP1;P1;durP2;ratioP2;P2;SDS_P1;SDS_P2;PMS_P1;PMS_P2;Temp;Humidity;BMP_temperature;BMP_pressure;BME280_temperature;BME280_humidity;BME280_pressure;Samples;Min_cycle;Max_cycle;Signal;HPM_P1;HPM_P2
2022/06/14 02:01:01;;;;;;;;;;;;;;;;;;;;;
2022/06/14 02:04:57;;;;;;;4.97;0.73;;;15.60;1.00;;;;;;6201552;23;20021;-91
2022/06/14 02:09:08;;;;;;;;;;;;;;;;;;;;;
2022/06/14 02:13:19;;;;;;;;;;;;;;;;;;;;;
2022/06/14 04:44:52;;;;;;;0.95;0.43;;;14.80;1.00;;;;;;6229108;23;20027;-90
2022/06/14 04:48:16;;;;;;;2.67;0.65;;;14.80;1.00;;;;;;6233053;23;20020;-90
2022/06/14 04:55:32;;;;;;;2.65;0.80;;;14.80;1.00;;;;;;6155281;23;20012;-91
2022/06/14 04:58:12;;;;;;;0.82;0.45;;;14.80;1.00;;;;;;6161728;23;20017;-88
2022/06/14 05:05:16;;;;;;;3.83;1.20;;;14.80;1.00;;;;;;6203908;23;20087;-92
2022/06/14 05:08:34;;;;;;;5.07;1.00;;;14.80;1.00;;;;;;6215404;23;20020;-90
2022/06/14 05:11:57;;;;;;;1.38;0.65;;;14.80;1.00;;;;;;6247423;23;20042;-92
2022/06/14 05:14:51;;;;;;;1.98;0.75;;;14.80;1.00;;;;;;6199417;23;20107;-88
2022/06/14 05:17:26;;;;;;;2.78;1.23;;;14.70;1.00;;;;;;6190747;23;20380;-90
2022/06/14 05:20:18;;;;;;;2.08;0.65;;;14.80;1.00;;;;;;6192111;23;20078;-89
2022/06/14 05:22:59;;;;;;;4.25;1.10;;;14.80;1.00;;;;;;6165977;23;20074;-90
2022/06/14 05:25:46;;;;;;;4.75;1.30;;;14.80;1.00;;;;;;6189898;23;20016;-90
2022/06/14 05:28:48;;;;;;;4.30;1.20;;;14.80;1.00;;;;;;6190301;23;20433;-90
2022/06/14 05:32:29;;;;;;;5.60;0.77;;;14.80;1.00;;;;;;6200851;23;20028;-89
2022/06/14 05:35:35;;;;;;;5.72;0.80;;;14.90;1.00;;;;;;6190346;23;20020;-90
2022/06/14 05:38:36;;;;;;;1.88;0.73;;;15.00;1.00;;;;;;6168013;23;20012;-90
2022/06/14 05:41:40;;;;;;;2.78;0.63;;;15.00;1.00;;;;;;6189798;23;20467;-92
2022/06/14 05:44:29;;;;;;;2.72;0.93;;;15.00;1.00;;;;;;6192348;23;20021;-91
2022/06/14 05:47:08;;;;;;;1.42;0.57;;;15.10;1.00;;;;;;6217212;23;20067;-92
2022/06/14 05:50:18;;;;;;;2.03;0.95;;;15.10;1.00;;;;;;6192020;23;20019;-92
2022/06/14 05:53:09;;;;;;;1.85;1.05;;;15.10;1.00;;;;;;6188894;23;20020;-91
2022/06/14 05:56:02;;;;;;;1.20;1.05;;;15.10;1.00;;;;;;6192927;23;20040;-87
2022/06/14 06:12:37;;;;;;;4.63;0.85;;;15.30;1.00;;;;;;6126654;23;20480;-93
2022/06/14 06:15:26;;;;;;;2.38;0.95;;;15.30;1.00;;;;;;6101394;23;20096;-92
2022/06/14 06:18:01;;;;;;;0.90;0.68;;;15.40;1.00;;;;;;6101311;23;20018;-92
2022/06/14 06:21:28;;;;;;;4.32;1.23;;;15.40;1.00;;;;;;6102607;23;20029;-93
2022/06/14 06:24:51;;;;;;;;;;;;;;;;;;;;;
2022/06/14 06:28:24;;;;;;;3.22;1.20;;;15.50;1.00;;;;;;5982809;23;20046;-89
2022/06/14 06:31:41;;;;;;;2.13;0.75;;;15.50;1.00;;;;;;5965521;23;20027;-91
2022/06/14 06:34:15;;;;;;;3.20;0.70;;;15.60;1.00;;;;;;6008958;23;20027;-93
2022/06/14 06:37:12;;;;;;;6.68;1.55;;;15.60;1.00;;;;;;5965623;23;20027;-90
2022/06/14 06:40:01;;;;;;;2.75;0.88;;;15.70;1.00;;;;;;5986423;23;20024;-92
2022/06/14 06:43:19;;;;;;;5.15;0.80;;;15.70;1.00;;;;;;6010045;23;20024;-91
2022/06/14 06:46:08;;;;;;;2.85;0.80;;;15.70;1.00;;;;;;5990722;23;20055;-91
2022/06/14 06:49:02;;;;;;;2.70;1.10;;;15.70;1.00;;;;;;6019623;23;20101;-91
2022/06/14 06:51:36;;;;;;;4.05;0.95;;;15.80;1.00;;;;;;6096933;23;20113;-89
2022/06/14 06:54:56;;;;;;;4.55;1.15;;;15.90;1.00;;;;;;6049325;23;20501;-89
2022/06/14 06:57:50;;;;;;;1.80;0.90;;;16.00;1.00;;;;;;5989907;23;20031;-92
2022/06/14 07:00:43;;;;;;;1.80;0.70;;;16.10;1.00;;;;;;5979037;23;20435;-92
2022/06/14 07:03:42;;;;;;;3.10;1.08;;;16.10;1.00;;;;;;6107956;23;20476;-93
2022/06/14 07:06:19;;;;;;;2.38;1.00;;;16.10;1.00;;;;;;6106328;23;20497;-91
2022/06/14 07:09:30;;;;;;;7.35;1.33;;;16.20;1.00;;;;;;6109370;23;20056;-90
2022/06/14 07:12:27;;;;;;;5.10;1.50;;;16.20;1.00;;;;;;6080261;23;20024;-92
2022/06/14 07:15:20;;;;;;;3.10;1.10;;;16.30;1.00;;;;;;6108663;23;20357;-90
2022/06/14 07:18:35;;;;;;;2.22;0.88;;;16.30;1.00;;;;;;6116150;23;20488;-92
2022/06/14 07:21:49;;;;;;;2.65;0.93;;;16.30;1.00;;;;;;6159104;23;20002;-91
2022/06/14 07:25:21;;;;;;;2.92;0.90;;;16.30;1.00;;;;;;6132166;23;20017;-89
2022/06/14 07:28:47;;;;;;;5.63;0.85;;;16.30;1.00;;;;;;6150109;23;20354;-92
2022/06/14 07:31:29;;;;;;;3.55;0.82;;;16.40;1.00;;;;;;6184325;23;20020;-89
2022/06/14 07:33:58;;;;;;;3.65;0.90;;;16.50;1.00;;;;;;6192365;23;20016;-90
2022/06/14 16:15:04;;;;;;;6.07;1.83;;;31.00;1.00;;;;;;6196834;23;20025;-91
2022/06/14 17:33:22;;;;;;;1.30;0.68;;;29.00;1.00;;;;;;6238312;23;20008;-94
2022/06/14 17:41:22;;;;;;;1.23;0.82;;;28.60;1.00;;;;;;6219247;23;20019;-95
2022/06/14 18:44:48;;;;;;;1.65;1.48;;;25.40;1.00;;;;;;6168143;23;20025;-92
2022/06/14 18:47:41;;;;;;;2.75;1.13;;;25.20;1.00;;;;;;6109270;23;20068;-90
2022/06/14 18:50:34;;;;;;;2.67;1.35;;;25.10;1.00;;;;;;6120537;23;20017;-93
2022/06/14 18:56:02;;;;;;;2.70;1.27;;;24.80;1.00;;;;;;6154006;23;20541;-91
2022/06/14 18:58:59;;;;;;;1.77;1.10;;;24.70;1.00;;;;;;6155182;23;20010;-92
2022/06/14 19:02:16;;;;;;;3.03;1.50;;;24.60;1.00;;;;;;6154863;23;20381;-91
2022/06/14 19:05:11;;;;;;;3.28;1.50;;;24.50;1.00;;;;;;6188587;23;20456;-94
2022/06/14 19:08:21;;;;;;;3.33;1.23;;;24.40;1.00;;;;;;6160271;23;20076;-91
2022/06/14 19:11:13;;;;;;;2.25;1.40;;;24.20;1.00;;;;;;6089622;23;20021;-94
2022/06/14 19:13:47;;;;;;;3.58;1.90;;;23.70;1.00;;;;;;6191811;23;20054;-88
2022/06/14 19:16:38;;;;;;;3.65;1.77;;;23.70;1.00;;;;;;6187219;23;20172;-93
2022/06/14 19:19:54;;;;;;;3.00;1.35;;;23.70;1.00;;;;;;6167354;23;20048;-90
2022/06/14 19:22:50;;;;;;;2.85;1.95;;;23.30;1.00;;;;;;6063318;23;20026;-91
2022/06/14 19:25:30;;;;;;;2.80;1.38;;;23.60;1.00;;;;;;6186287;23;20068;-90
2022/06/14 19:28:18;;;;;;;1.98;1.38;;;23.70;1.00;;;;;;6217180;23;20013;-90
2022/06/14 19:30:53;;;;;;;3.08;1.70;;;23.60;1.00;;;;;;6192033;23;20016;-91
2022/06/14 19:33:37;;;;;;;3.05;1.10;;;23.50;1.00;;;;;;6164000;23;20433;-91
2022/06/14 19:36:10;;;;;;;3.83;1.80;;;23.50;1.00;;;;;;6167544;23;20044;-92
2022/06/14 19:43:40;;;;;;;2.00;1.50;;;23.40;1.00;;;;;;5981360;23;20034;-91
2022/06/14 19:52:56;;;;;;;1.70;1.40;;;23.20;1.00;;;;;;6096766;23;20104;-93
2022/06/14 19:55:44;;;;;;;3.17;1.70;;;23.00;1.00;;;;;;6072810;23;20546;-91
2022/06/14 19:58:40;;;;;;;2.72;1.60;;;23.00;1.00;;;;;;6076936;23;20049;-90
2022/06/14 20:01:43;;;;;;;1.70;1.30;;;22.90;1.00;;;;;;6054230;23;20023;-89
2022/06/14 20:04:29;;;;;;;2.63;1.75;;;22.80;1.00;;;;;;6071545;23;20044;-90
2022/06/14 20:07:26;;;;;;;1.95;1.33;;;22.80;1.00;;;;;;6051534;23;20018;-92
2022/06/14 20:10:26;;;;;;;2.92;1.95;;;22.70;1.00;;;;;;6073087;23;20026;-91
2022/06/14 20:13:00;;;;;;;4.50;1.50;;;22.70;1.00;;;;;;6030461;23;20136;-90
2022/06/14 20:15:44;;;;;;;6.40;2.30;;;22.60;1.00;;;;;;6050830;23;20045;-90
2022/06/14 20:18:17;;;;;;;3.38;1.65;;;22.50;1.00;;;;;;6072995;23;20023;-91
2022/06/14 20:20:48;;;;;;;3.08;1.73;;;22.30;1.00;;;;;;6146010;23;20437;-92
2022/06/14 20:23:25;;;;;;;5.82;2.13;;;22.30;1.00;;;;;;6162974;23;20384;-92
2022/06/14 20:26:12;;;;;;;2.90;1.63;;;22.30;1.00;;;;;;6169065;23;20024;-89
2022/06/14 20:29:05;;;;;;;5.45;1.48;;;22.20;1.00;;;;;;6166090;23;20433;-90
2022/06/14 20:31:54;;;;;;;2.08;1.40;;;22.20;1.00;;;;;;6162007;23;20507;-90
2022/06/14 20:34:35;;;;;;;4.95;2.45;;;22.10;1.00;;;;;;6162498;23;20021;-89
2022/06/14 20:37:11;;;;;;;2.15;1.20;;;22.00;1.00;;;;;;6190848;23;20112;-91
